Time;durP1;ratioP1;P1;durP2;ratioP2;P2;SDS_P1;SDS_P2;PMS_P1;PMS_P2;Temp;Humidity;BMP_temperature;BMP_pressure;BME280_temperature;BME280_humidity;BME280_pressure;Samples;Min_cycle;Max_cycle;Signal;HPM_P1;HPM_P2
2021/12/31 05:56:58;;;;;;;8.65;3.05;;;;;;;;;;6085041;23;20026;-96
2021/12/31 11:30:43;;;;;;;7.03;3.47;;;;;;;;;;4999366;28;20043;-95
2021/12/31 11:33:20;;;;;;;5.80;3.80;;;;;;;;;;4989251;28;20051;-95
2021/12/31 11:35:58;;;;;;;6.55;3.50;;;;;;;;;;4983175;28;20035;-96
2021/12/31 11:38:29;;;;;;;8.85;4.05;;;;;;;;;;4986697;28;20031;-94
2021/12/31 11:41:05;;;;;;;7.70;4.07;;;;;;;;;;4987634;28;20034;-95
2021/12/31 11:43:37;;;;;;;4.18;3.00;;;;;;;;;;4998299;28;20045;-95
2021/12/31 11:46:32;;;;;;;5.18;3.17;;;;;;;;;;4989791;28;20023;-94
2021/12/31 11:49:39;;;;;;;6.80;2.13;;;;;;;;;;4937204;29;20050;-95
2021/12/31 11:52:27;;;;;;;3.08;2.10;;;;;;;;;;4910560;29;20044;-95
2021/12/31 11:55:18;;;;;;;3.38;2.08;;;18.10;75.70;;;;;;4904757;29;20021;-96
2021/12/31 11:57:47;;;;;;;3.80;2.05;;;;;;;;;;4906147;29;20122;-94
2021/12/31 12:00:32;;;;;;;3.22;1.77;;;;;;;;;;4909744;29;20040;-96
2021/12/31 12:03:22;;;;;;;2.45;1.98;;;;;;;;;;4877149;29;20059;-94
2021/12/31 12:05:50;;;;;;;2.53;1.98;;;;;;;;;;4896321;29;20115;-95
2021/12/31 12:08:27;;;;;;;2.38;1.65;;;;;;;;;;4903140;29;20044;-94
2021/12/31 12:10:54;;;;;;;4.50;2.65;;;;;;;;;;4900867;29;20017;-95
2021/12/31 12:13:22;;;;;;;11.00;4.25;;;;;;;;;;4888609;29;20072;-94
2021/12/31 12:15:49;;;;;;;;;;;17.70;77.80;;;;;;4888260;29;20062;-95
2021/12/31 12:18:36;;;;;;;2.40;2.00;;;;;;;;;;4887812;29;19943;-95
2021/12/31 12:21:07;;;;;;;2.60;1.80;;;;;;;;;;4894307;29;20127;-96
2021/12/31 12:23:37;;;;;;;3.78;2.35;;;;;;;;;;4905740;29;20072;-95
2021/12/31 12:26:06;;;;;;;6.20;2.00;;;;;;;;;;4917995;29;20049;-95
2021/12/31 12:28:34;;;;;;;2.45;1.45;;;;;;;;;;4955602;28;20046;-94
2021/12/31 12:31:14;;;;;;;4.70;2.03;;;;;;;;;;4982509;28;20142;-93
2021/12/31 12:33:41;;;;;;;5.45;1.90;;;;;;;;;;4979558;28;20053;-94
2021/12/31 12:36:08;;;;;;;3.20;1.67;;;;;;;;;;4995845;28;20032;-95
2021/12/31 12:38:39;;;;;;;2.83;1.58;;;;;;;;;;4994670;28;20033;-94
2021/12/31 12:41:21;;;;;;;3.65;1.80;;;;;;;;;;4992442;28;20055;-95
2021/12/31 12:43:50;;;;;;;2.50;1.40;;;;;;;;;;4982395;28;20031;-95
2021/12/31 12:46:24;;;;;;;2.95;1.98;;;;;;;;;;4981271;28;20050;-95
2021/12/31 12:48:57;;;;;;;2.22;1.52;;;;;;;;;;4978040;28;20087;-94
2021/12/31 12:51:31;;;;;;;2.30;1.70;;;;;;;;;;4965659;28;20049;-94
2021/12/31 12:54:05;;;;;;;3.42;1.83;;;;;;;;;;4981567;28;20054;-95
2021/12/31 12:56:36;;;;;;;3.08;1.80;;;;;;;;;;4985601;28;20041;-94
2021/12/31 12:59:04;;;;;;;3.72;2.08;;;;;;;;;;4978667;28;20039;-95
2021/12/31 13:01:52;;;;;;;4.72;1.70;;;;;;;;;;4987583;28;20434;-94
2021/12/31 13:04:28;;;;;;;2.17;1.63;;;;;;;;;;5003473;28;20054;-94
2021/12/31 13:07:02;;;;;;;3.22;2.25;;;;;;;;;;4985632;28;20027;-96
2021/12/31 13:09:31;;;;;;;3.50;2.22;;;;;;;;;;4979192;28;20081;-94
2021/12/31 13:11:59;;;;;;;3.38;2.40;;;;;;;;;;4981484;28;20103;-96
2021/12/31 13:14:30;;;;;;;3.20;2.63;;;;;;;;;;4978404;28;20081;-95
2021/12/31 13:17:00;;;;;;;2.75;2.00;;;;;;;;;;4979922;28;20023;-94
2021/12/31 13:19:28;;;;;;;4.25;2.60;;;;;;;;;;4982768;28;20041;-94
2021/12/31 13:22:02;;;;;;;3.65;2.50;;;;;;;;;;4967358;28;20031;-94
2021/12/31 13:24:35;;;;;;;2.42;2.13;;;;;;;;;;4988319;28;20057;-95
2021/12/31 13:27:14;;;;;;;2.90;1.80;;;;;;;;;;4995614;28;20034;-96
2021/12/31 13:36:25;;;;;;;6.20;2.10;;;;;;;;;;4994301;28;20046;-95
2021/12/31 13:39:21;;;;;;;2.70;1.60;;;;;;;;;;4985817;28;20035;-94
2021/12/31 13:42:04;;;;;;;3.05;2.15;;;;;;;;;;4988227;28;20027;-95
2021/12/31 13:44:46;;;;;;;2.45;1.92;;;;;;;;;;4988828;28;20519;-96
2021/12/31 13:47:22;;;;;;;4.18;2.15;;;;;;;;;;4988860;28;20042;-95
2021/12/31 13:50:00;;;;;;;7.45;2.58;;;;;;;;;;4940982;29;20049;-96
2021/12/31 13:52:48;;;;;;;5.55;2.58;;;15.40;90.70;;;;;;4987298;28;20055;-95
2021/12/31 13:55:31;;;;;;;4.68;1.77;;;;;;;;;;4969381;29;20033;-94
2021/12/31 13:58:10;;;;;;;3.95;1.88;;;;;;;;;;4980775;28;20034;-96
2021/12/31 14:00:50;;;;;;;26.55;9.38;;;;;;;;;;4988156;28;20046;-95
2021/12/31 14:03:25;;;;;;;41.60;14.82;;;;;;;;;;4985242;28;20492;-94
2021/12/31 14:05:58;;;;;;;20.20;8.77;;;;;;;;;;4973868;28;20157;-95
2021/12/31 14:11:10;;;;;;;3.97;1.75;;;;;;;;;;4985535;28;20054;-95
2021/12/31 14:13:46;;;;;;;2.72;1.67;;;;;;;;;;4984863;28;20046;-95
2021/12/31 14:16:37;;;;;;;6.10;2.15;;;;;;;;;;4995612;28;20491;-94
2021/12/31 14:19:10;;;;;;;6.70;3.13;;;;;;;;;;4968133;29;20023;-96
2021/12/31 14:21:41;;;;;;;3.78;1.70;;;;;;;;;;4963113;29;20067;-95
2021/12/31 14:24:12;;;;;;;14.50;7.38;;;;;;;;;;4981631;28;20026;-95
2021/12/31 14:26:44;;;;;;;12.77;4.75;;;;;;;;;;4987418;28;20019;-95
2021/12/31 14:29:21;;;;;;;10.88;3.72;;;;;;;;;;4985728;28;20035;-95
2021/12/31 14:32:11;;;;;;;3.10;1.48;;;;;;;;;;4986979;28;20067;-95
2021/12/31 14:34:45;;;;;;;1.55;1.42;;;;;;;;;;4965398;29;20459;-95
2021/12/31 14:37:24;;;;;;;2.28;1.33;;;;;;;;;;4936904;29;20040;-95
2021/12/31 14:53:09;;;;;;;10.30;5.40;;;;;;;;;;4981648;28;20043;-94
2021/12/31 14:55:36;;;;;;;8.80;4.20;;;;;;;;;;4982253;28;20023;-95
2021/12/31 14:58:02;;;;;;;6.28;4.20;;;;;;;;;;4997939;28;20113;-95
2021/12/31 15:00:28;;;;;;;5.10;2.47;;;;;;;;;;4989865;28;20093;-95
2021/12/31 15:02:58;;;;;;;4.47;2.63;;;;;;;;;;4988368;28;20278;-95
2021/12/31 15:05:24;;;;;;;4.82;2.58;;;;;;;;;;4978249;28;20035;-94
2021/12/31 15:07:53;;;;;;;5.05;1.30;;;;;;;;;;4977496;28;20515;-95
2021/12/31 15:10:23;;;;;;;2.33;1.55;;;;;;;;;;4990988;28;20042;-95
2021/12/31 15:12:58;;;;;;;2.20;1.55;;;;;;;;;;4962652;29;20106;-94
2021/12/31 15:15:26;;;;;;;2.63;1.83;;;;;;;;;;4975045;28;20404;-95
2021/12/31 15:17:52;;;;;;;3.63;2.17;;;;;;;;;;4981237;28;20030;-95
2021/12/31 15:20:23;;;;;;;5.82;3.13;;;;;;;;;;4988834;28;20062;-95
2021/12/31 15:22:50;;;;;;;3.05;1.95;;;;;;;;;;4979487;28;20054;-94
2021/12/31 15:25:17;;;;;;;2.38;1.08;;;;;;;;;;4962846;28;20023;-95
2021/12/31 15:27:43;;;;;;;3.25;1.85;;;;;;;;;;4981369;28;20053;-95
2021/12/31 15:30:11;;;;;;;1.70;1.60;;;;;;;;;;4966581;28;20771;-94
2021/12/31 15:32:37;;;;;;;2.28;1.50;;;;;;;;;;4988790;28;20063;-95
2021/12/31 15:35:06;;;;;;;1.37;1.27;;;;;;;;;;4983824;28;20113;-96
2021/12/31 15:37:34;;;;;;;3.22;2.33;;;;;;;;;;4982602;28;20053;-96
2021/12/31 15:40:03;;;;;;;4.47;2.08;;;;;;;;;;4982000;28;20034;-95
2021/12/31 15:42:30;;;;;;;2.88;1.98;;;;;;;;;;4981954;28;20062;-94
2021/12/31 15:44:57;;;;;;;3.22;1.52;;;;;;;;;;4983480;28;20050;-95
2021/12/31 15:47:23;;;;;;;3.17;1.45;;;;;;;;;;4970616;28;20046;-95
2021/12/31 15:49:50;;;;;;;1.13;1.02;;;;;;;;;;4980628;28;20031;-94
2021/12/31 15:52:21;;;;;;;8.10;1.90;;;;;;;;;;4981739;28;20069;-95
2021/12/31 15:54:48;;;;;;;2.03;1.30;;;;;;;;;;4979860;28;20121;-95
2021/12/31 15:57:20;;;;;;;1.30;1.20;;;;;;;;;;4988326;28;20026;-96
2021/12/31 15:59:50;;;;;;;3.88;2.53;;;;;;;;;;4983557;28;20045;-95
2021/12/31 16:02:19;;;;;;;5.00;4.07;;;;;;;;;;4983730;28;20484;-95
2021/12/31 16:04:48;;;;;;;10.68;5.85;;;;;;;;;;4981321;28;20531;-94
2021/12/31 16:07:14;;;;;;;;;;;12.60;92.70;;;;;;4965847;28;20061;-96
2021/12/31 16:09:41;;;;;;;11.73;5.50;;;;;;;;;;4980357;28;19910;-94
2021/12/31 16:12:09;;;;;;;11.05;6.35;;;;;;;;;;4985196;28;20034;-95
2021/12/31 16:14:37;;;;;;;8.95;5.70;;;;;;;;;;4981837;28;20066;-94
2021/12/31 16:17:07;;;;;;;9.88;5.05;;;;;;;;;;4981872;28;20038;-95
2021/12/31 16:19:33;;;;;;;7.23;3.93;;;;;;;;;;4981726;28;20031;-94
2021/12/31 16:22:01;;;;;;;4.75;2.42;;;;;;;;;;4980316;28;20263;-95
2021/12/31 16:24:28;;;;;;;2.20;1.75;;;;;;;;;;4980447;28;20102;-95
2021/12/31 16:27:07;;;;;;;1.45;1.10;;;;;;;;;;4984129;28;20043;-95
2021/12/31 16:29:48;;;;;;;1.60;1.33;;;;;;;;;;4993895;28;20034;-95
2021/12/31 16:32:15;;;;;;;2.53;1.67;;;;;;;;;;4982521;28;20067;-95
2021/12/31 16:34:44;;;;;;;1.95;1.73;;;;;;;;;;4995350;28;20042;-95
2021/12/31 16:37:15;;;;;;;3.88;2.53;;;;;;;;;;5003518;28;20046;-95
2021/12/31 16:39:46;;;;;;;3.28;1.90;;;;;;;;;;5003101;28;20023;-96
2021/12/31 16:42:31;;;;;;;3.85;2.58;;;;;;;;;;5004850;28;20038;-94
2021/12/31 16:45:04;;;;;;;8.25;4.13;;;;;;;;;;4991276;28;20027;-96
2021/12/31 16:47:54;;;;;;;6.78;4.00;;;;;;;;;;4986581;28;20027;-95
2021/12/31 16:50:32;;;;;;;6.95;2.65;;;;;;;;;;5007243;28;20034;-94
2021/12/31 16:53:01;;;;;;;6.05;3.05;;;;;;;;;;4996575;28;20055;-95
2021/12/31 16:55:39;;;;;;;;;;;11.10;90.80;;;;;;4997165;28;20043;-96
2021/12/31 16:58:15;;;;;;;9.25;3.40;;;;;;;;;;5007083;28;19906;-96
2021/12/31 17:01:05;;;;;;;2.22;1.77;;;;;;;;;;4969448;29;20054;-95
2021/12/31 17:03:52;;;;;;;2.45;1.85;;;;;;;;;;4972153;28;20032;-95
2021/12/31 17:06:34;;;;;;;3.65;1.55;;;;;;;;;;5005379;28;20117;-95
2021/12/31 17:09:24;;;;;;;1.83;1.52;;;;;;;;;;4992314;28;20496;-94
2021/12/31 17:11:57;;;;;;;3.78;2.08;;;;;;;;;;4980000;28;20054;-95
2021/12/31 17:14:39;;;;;;;8.20;1.15;;;;;;;;;;4998713;28;20031;-94
2021/12/31 17:17:25;;;;;;;8.25;2.20;;;;;;;;;;4999303;28;20030;-94
2021/12/31 17:20:17;;;;;;;4.07;2.53;;;;;;;;;;4986520;28;20114;-95
2021/12/31 17:23:30;;;;;;;8.02;2.45;;;;;;;;;;4976306;28;20038;-94
2021/12/31 17:26:16;;;;;;;3.60;1.67;;;;;;;;;;4999812;28;20035;-94
2021/12/31 17:29:07;;;;;;;3.58;1.90;;;;;;;;;;4993290;28;20114;-95
2021/12/31 17:32:20;;;;;;;2.13;1.58;;;;;;;;;;4995672;28;20031;-95
2021/12/31 17:35:25;;;;;;;8.35;2.95;;;;;;;;;;5006954;28;20034;-95
2021/12/31 17:38:12;;;;;;;5.72;3.58;;;;;;;;;;4994483;28;20031;-95
2021/12/31 17:41:01;;;;;;;6.78;3.20;;;;;;;;;;4950536;28;20125;-96
2021/12/31 17:43:55;;;;;;;3.47;2.42;;;;;;;;;;4983190;28;20043;-95
2021/12/31 17:46:45;;;;;;;6.18;3.67;;;;;;;;;;4967581;28;20059;-95
2021/12/31 17:49:36;;;;;;;8.20;4.75;;;;;;;;;;4974365;28;20074;-94
2021/12/31 17:52:27;;;;;;;3.58;1.98;;;;;;;;;;4909435;29;20056;-94
2021/12/31 17:55:20;;;;;;;2.72;2.03;;;;;;;;;;4912560;29;20112;-95
2021/12/31 17:57:55;;;;;;;3.40;2.13;;;;;;;;;;4901904;29;20137;-94
2021/12/31 18:01:08;;;;;;;2.28;2.08;;;10.30;88.40;;;;;;4914565;29;20119;-95
2021/12/31 18:04:17;;;;;;;7.40;3.90;;;;;;;;;;4930171;29;20028;-96
2021/12/31 18:09:58;;;;;;;5.78;3.42;;;;;;;;;;4916453;29;20043;-94
2021/12/31 18:12:37;;;;;;;2.95;1.98;;;;;;;;;;4937464;29;20050;-95
2021/12/31 18:15:10;;;;;;;3.67;1.80;;;;;;;;;;4935617;29;20105;-94
2021/12/31 18:18:18;;;;;;;2.80;1.80;;;;;;;;;;4903446;29;20032;-95
2021/12/31 18:21:36;;;;;;;5.15;2.17;;;;;;;;;;4861880;29;20065;-95
2021/12/31 18:24:45;;;;;;;14.25;5.00;;;;;;;;;;4824868;29;20047;-95
2021/12/31 18:27:51;;;;;;;8.55;5.10;;;;;;;;;;4807856;30;20039;-94
2021/12/31 18:31:15;;;;;;;11.73;4.17;;;;;;;;;;4790091;29;20031;-95
2021/12/31 18:34:11;;;;;;;;;;;9.90;89.00;;;;;;4770131;30;20321;-95
2021/12/31 18:40:11;;;;;;;12.10;4.70;;;;;;;;;;4738943;30;20040;-95
2021/12/31 18:43:17;;;;;;;6.55;2.92;;;;;;;;;;4719934;30;20045;-96
2021/12/31 18:46:53;;;;;;;6.97;2.90;;;;;;;;;;4719649;30;20021;-96
2021/12/31 18:50:05;;;;;;;4.03;2.35;;;;;;;;;;4687474;30;20142;-95
2021/12/31 19:06:53;;;;;;;8.32;4.35;;;;;;;;;;4666993;30;20041;-95
2021/12/31 19:10:24;;;;;;;6.35;3.45;;;9.40;86.80;;;;;;4709415;30;20047;-95
2021/12/31 19:13:33;;;;;;;3.45;1.95;;;;;;;;;;4830787;29;20108;-96
